createdAt,value
2022-09-17T00:00:39.304Z,50.834885
2022-09-17T00:01:39.351Z,50.834873
2022-09-17T00:02:40.100Z,50.834896
2022-09-17T00:03:39.324Z,50.834885
2022-09-17T00:04:39.392Z,50.834869
2022-09-17T00:05:39.316Z,50.834888
2022-09-17T00:06:40.264Z,50.834904
2022-09-17T00:07:40.338Z,50.834866
2022-09-17T00:08:40.775Z,50.834877
2022-09-17T00:09:39.396Z,50.834869
2022-09-17T00:10:39.350Z,50.834866
2022-09-17T00:11:39.280Z,50.834854
2022-09-17T00:12:40.052Z,50.834850
2022-09-17T00:14:13.247Z,50.834839
2022-09-17T00:14:39.139Z,50.834835
2022-09-17T00:15:40.794Z,50.834835
2022-09-17T00:16:40.092Z,50.834831
2022-09-17T00:17:39.281Z,50.834854
2022-09-17T00:18:39.346Z,50.834835
2022-09-17T00:19:39.298Z,50.834850
2022-09-17T00:20:40.116Z,50.834850
2022-09-17T00:21:39.827Z,50.834869
2022-09-17T00:22:39.149Z,50.834850
2022-09-17T00:23:39.961Z,50.834854
2022-09-17T00:24:39.270Z,50.834866
2022-09-17T00:25:39.307Z,50.834862
2022-09-17T00:26:40.122Z,50.834915
2022-09-17T00:27:39.184Z,50.834885
2022-09-17T00:28:39.168Z,50.834862
2022-09-17T00:29:39.166Z,50.834873
2022-09-17T00:30:40.071Z,50.834885
2022-09-17T00:31:39.242Z,50.834885
2022-09-17T00:32:39.125Z,50.834869
2022-09-17T00:33:39.028Z,50.834846
2022-09-17T00:34:39.580Z,50.834839
2022-09-17T00:35:39.784Z,50.834820
2022-09-17T00:36:39.828Z,50.834839
2022-09-17T00:37:39.048Z,50.834846
2022-09-17T00:38:39.065Z,50.834854
2022-09-17T00:39:39.080Z,50.834858
2022-09-17T00:40:39.162Z,50.834862
2022-09-17T00:41:40.316Z,50.834862
2022-09-17T00:42:38.989Z,50.834862
2022-09-17T00:43:40.316Z,50.834854
2022-09-17T00:44:39.871Z,50.834839
2022-09-17T00:45:40.081Z,50.834843
2022-09-17T00:46:40.191Z,50.834843
2022-09-17T00:47:38.999Z,50.834816
2022-09-17T00:48:39.954Z,50.834835
2022-09-17T00:49:39.865Z,50.834854
2022-09-17T00:50:39.866Z,50.834835
2022-09-17T00:51:38.977Z,50.834839
2022-09-17T00:52:38.946Z,50.834824
2022-09-17T00:53:39.018Z,50.834835
2022-09-17T00:54:38.934Z,50.834812
2022-09-17T00:55:39.005Z,50.834812
2022-09-17T00:56:39.055Z,50.834812
2022-09-17T00:57:38.954Z,50.834820
2022-09-17T00:58:41.295Z,50.834805
2022-09-17T00:59:40.574Z,50.834812
2022-09-17T01:00:39.596Z,50.834820
2022-09-17T01:01:39.664Z,50.834808
2022-09-17T01:02:38.975Z,50.834797
2022-09-17T01:03:39.918Z,50.834831
2022-09-17T01:04:40.598Z,50.834820
2022-09-17T01:05:39.825Z,50.834820
2022-09-17T01:06:39.969Z,50.834820
2022-09-17T01:07:38.911Z,50.834812
2022-09-17T01:08:39.590Z,50.834812
2022-09-17T01:09:40.097Z,50.834816
2022-09-17T01:10:38.792Z,50.834827
2022-09-17T01:11:40.079Z,50.834831
2022-09-17T01:12:48.609Z,50.834816
2022-09-17T01:14:23.799Z,50.834816
2022-09-17T01:15:01.793Z,50.834820
2022-09-17T01:16:02.083Z,50.834816
2022-09-17T01:17:15.090Z,50.834816
2022-09-17T01:17:47.116Z,50.834816
2022-09-17T01:18:55.172Z,50.834805
2022-09-17T01:19:48.612Z,50.834816
2022-09-17T01:20:47.121Z,50.834820
2022-09-17T01:21:47.721Z,50.834812
2022-09-17T01:31:55.235Z,50.834831
2022-09-17T01:33:12.011Z,50.834820
2022-09-17T01:33:58.010Z,50.834831
2022-09-17T01:35:01.387Z,50.834805
2022-09-17T01:36:17.398Z,50.834797
2022-09-17T01:37:07.790Z,50.834812
2022-09-17T01:38:17.505Z,50.834808
2022-09-17T01:39:08.604Z,50.834808
2022-09-17T01:40:03.698Z,50.834812
2022-09-17T01:41:02.994Z,50.834843
2022-09-17T01:41:52.986Z,50.834843
2022-09-17T01:42:50.221Z,50.834843
2022-09-17T01:43:50.985Z,50.834805
2022-09-17T01:44:50.172Z,50.834816
2022-09-17T02:06:16.125Z,50.834827
2022-09-17T02:07:17.054Z,50.834812
2022-09-17T02:08:35.272Z,50.834827
2022-09-17T02:09:25.999Z,50.834797
2022-09-17T02:10:17.992Z,50.834812
2022-09-17T02:11:16.600Z,50.834805
2022-09-17T02:21:55.424Z,50.834839
2022-09-17T02:22:56.383Z,50.834816
2022-09-17T02:23:55.441Z,50.834824
2022-09-17T02:24:56.269Z,50.834808
2022-09-17T02:25:55.458Z,50.834820
2022-09-17T02:26:55.523Z,50.834797
2022-09-17T02:27:55.499Z,50.834793
2022-09-17T02:28:55.429Z,50.834763
2022-09-17T02:29:56.037Z,50.834789
2022-09-17T02:30:59.320Z,50.834805
2022-09-17T02:31:57.028Z,50.834770
2022-09-17T02:32:57.277Z,50.834824
2022-09-17T02:34:02.775Z,50.834831
2022-09-17T02:34:56.471Z,50.834820
2022-09-17T02:35:56.817Z,50.834827
2022-09-17T02:37:06.272Z,50.834835
2022-09-17T02:55:31.219Z,50.834827
2022-09-17T02:56:31.120Z,50.834816
2022-09-17T02:57:31.018Z,50.834827
2022-09-17T02:58:31.176Z,50.834843
2022-09-17T02:59:31.072Z,50.834808
2022-09-17T03:00:31.093Z,50.834824
2022-09-17T03:01:31.092Z,50.834801
2022-09-17T03:02:43.165Z,50.834816
2022-09-17T03:03:54.077Z,50.834831
2022-09-17T03:04:32.718Z,50.834816
2022-09-17T03:05:31.900Z,50.834805
2022-09-17T03:06:31.944Z,50.834801
2022-09-17T03:07:31.068Z,50.834797
2022-09-17T03:08:30.992Z,50.834797
2022-09-17T03:09:31.609Z,50.834801
2022-09-17T03:10:31.654Z,50.834797
2022-09-17T03:11:31.951Z,50.834789
2022-09-17T03:12:31.464Z,50.834801
2022-09-17T03:13:31.049Z,50.834793
2022-09-17T03:14:31.876Z,50.834801
2022-09-17T03:16:04.074Z,50.834801
2022-09-17T03:16:30.827Z,50.834824
2022-09-17T03:17:30.812Z,50.834816
2022-09-17T03:18:30.798Z,50.834801
2022-09-17T03:19:30.779Z,50.834793
2022-09-17T03:20:30.776Z,50.834812
2022-09-17T03:21:30.793Z,50.834812
2022-09-17T03:22:30.732Z,50.834812
2022-09-17T03:23:30.789Z,50.834793
2022-09-17T03:24:30.829Z,50.834797
2022-09-17T03:25:30.750Z,50.834801
2022-09-17T03:26:30.841Z,50.834782
2022-09-17T03:27:30.802Z,50.834797
2022-09-17T03:28:30.767Z,50.834816
2022-09-17T03:29:30.726Z,50.834820
2022-09-17T03:30:30.716Z,50.834824
2022-09-17T03:31:30.711Z,50.834812
2022-09-17T03:32:30.684Z,50.834808
2022-09-17T03:33:30.752Z,50.834816
2022-09-17T03:34:30.733Z,50.834805
2022-09-17T03:35:30.726Z,50.834846
2022-09-17T03:36:30.696Z,50.834839
2022-09-17T03:37:33.083Z,50.834827
2022-09-17T03:38:31.764Z,50.834835
2022-09-17T03:39:30.634Z,50.834824
2022-09-17T03:40:30.790Z,50.834835
2022-09-17T03:41:30.713Z,50.834831
2022-09-17T03:42:30.641Z,50.834824
2022-09-17T03:43:30.603Z,50.834797
2022-09-17T03:44:30.626Z,50.834824
2022-09-17T03:45:30.632Z,50.834820
2022-09-17T03:46:30.655Z,50.834816
2022-09-17T04:05:40.868Z,50.834824
2022-09-17T04:06:40.844Z,50.834824
2022-09-17T04:07:40.855Z,50.834824
2022-09-17T04:08:40.841Z,50.834824
2022-09-17T04:09:40.899Z,50.834824
2022-09-17T04:10:40.877Z,50.834911
2022-09-17T04:11:40.842Z,50.834888
2022-09-17T04:12:40.821Z,50.834877
2022-09-17T04:13:41.825Z,50.834877
2022-09-17T04:14:40.854Z,50.834885
2022-09-17T04:15:40.901Z,50.834873
2022-09-17T04:16:41.887Z,50.834877
2022-09-17T04:17:40.794Z,50.834877
2022-09-17T04:18:40.841Z,50.834866
2022-09-17T04:19:40.797Z,50.834843
2022-09-17T04:20:40.777Z,50.834858
2022-09-17T04:21:40.759Z,50.834869
2022-09-17T04:22:40.708Z,50.834869
2022-09-17T04:23:40.717Z,50.834869
2022-09-17T04:24:40.720Z,50.834862
2022-09-17T04:25:40.689Z,50.834873
2022-09-17T04:26:40.728Z,50.834877
2022-09-17T04:27:40.715Z,50.834869
2022-09-17T04:28:40.687Z,50.834873
2022-09-17T04:29:40.662Z,50.834858
2022-09-17T04:30:40.754Z,50.834858
2022-09-17T04:31:40.710Z,50.834850
2022-09-17T04:32:40.676Z,50.834843
2022-09-17T04:33:40.635Z,50.834854
2022-09-17T04:34:40.720Z,50.834850
2022-09-17T04:35:40.635Z,50.834846
2022-09-17T04:36:40.643Z,50.834846
2022-09-17T04:37:40.642Z,50.834854
2022-09-17T04:38:40.624Z,50.834846
2022-09-17T04:39:40.647Z,50.834843
2022-09-17T04:40:40.676Z,50.834846
2022-09-17T04:41:40.600Z,50.834846
2022-09-17T04:42:40.579Z,50.834862
2022-09-17T04:43:40.567Z,50.834854
2022-09-17T04:44:40.586Z,50.834854
2022-09-17T04:45:40.579Z,50.834866
2022-09-17T04:46:40.663Z,50.834866
2022-09-17T04:47:40.542Z,50.834843
2022-09-17T04:48:40.533Z,50.834846
2022-09-17T04:49:40.542Z,50.834850
2022-09-17T04:50:40.636Z,50.834850
2022-09-17T04:51:40.519Z,50.834858
2022-09-17T04:52:40.521Z,50.834850
2022-09-17T04:53:40.509Z,50.834866
2022-09-17T04:54:40.489Z,50.834850
2022-09-17T04:55:40.539Z,50.834866
2022-09-17T04:56:40.465Z,50.834877
2022-09-17T04:57:40.462Z,50.834885
2022-09-17T04:58:40.455Z,50.834881
2022-09-17T04:59:40.482Z,50.834866
2022-09-17T05:00:40.517Z,50.834869
2022-09-17T05:01:40.543Z,50.834858
2022-09-17T05:02:40.437Z,50.834839
2022-09-17T05:03:40.446Z,50.834835
2022-09-17T05:04:40.410Z,50.834843
2022-09-17T05:05:40.424Z,50.834854
2022-09-17T05:06:40.533Z,50.834835
2022-09-17T05:07:40.407Z,50.834854
2022-09-17T05:08:40.386Z,50.834846
2022-09-17T05:09:40.393Z,50.834843
2022-09-17T05:10:40.373Z,50.834846
2022-09-17T05:11:40.361Z,50.834843
2022-09-17T05:12:40.371Z,50.834827
2022-09-17T05:13:40.348Z,50.834850
2022-09-17T05:14:40.329Z,50.834862
2022-09-17T05:15:40.476Z,50.834831
2022-09-17T05:16:40.330Z,50.834843
2022-09-17T05:17:40.365Z,50.834843
2022-09-17T05:18:40.303Z,50.834835
2022-09-17T05:19:40.317Z,50.834873
2022-09-17T05:20:40.324Z,50.834835
2022-09-17T05:21:40.274Z,50.834793
2022-09-17T05:22:40.371Z,50.834805
2022-09-17T05:23:40.272Z,50.834801
2022-09-17T05:24:40.263Z,50.834812
2022-09-17T05:25:40.243Z,50.834831
2022-09-17T05:26:40.220Z,50.834873
2022-09-17T05:27:40.274Z,50.834839
2022-09-17T05:28:40.268Z,50.834846
2022-09-17T05:29:40.233Z,50.834812
2022-09-17T05:30:40.214Z,50.834835
2022-09-17T05:31:41.241Z,50.834824
2022-09-17T05:32:40.204Z,50.834820
2022-09-17T05:33:40.190Z,50.834827
2022-09-17T05:34:40.151Z,50.834797
2022-09-17T05:35:40.176Z,50.834797
2022-09-17T05:36:40.188Z,50.834812
2022-09-17T05:37:40.153Z,50.834820
2022-09-17T05:38:40.214Z,50.834793
2022-09-17T05:39:40.174Z,50.834763
2022-09-17T05:40:40.134Z,50.834797
2022-09-17T05:41:40.102Z,50.834801
2022-09-17T05:42:40.104Z,50.834793
2022-09-17T05:43:40.086Z,50.834789
2022-09-17T05:44:40.106Z,50.834808
2022-09-17T05:45:40.087Z,50.834789
2022-09-17T05:46:40.138Z,50.834785
2022-09-17T05:47:40.086Z,50.834793
2022-09-17T05:48:40.055Z,50.834789
2022-09-17T05:49:40.067Z,50.834816
2022-09-17T05:50:40.049Z,50.834827
2022-09-17T05:51:40.040Z,50.834793
2022-09-17T05:52:40.033Z,50.834820
2022-09-17T05:53:40.037Z,50.834820
2022-09-17T05:54:40.109Z,50.834801
2022-09-17T05:55:41.002Z,50.834797
2022-09-17T05:56:39.988Z,50.834805
2022-09-17T05:57:40.996Z,50.834782
2022-09-17T05:58:40.001Z,50.834808
2022-09-17T05:59:39.963Z,50.834824
2022-09-17T06:00:39.986Z,50.834816
2022-09-17T06:01:40.000Z,50.834797
2022-09-17T06:02:39.979Z,50.834801
2022-09-17T06:03:39.941Z,50.834801
2022-09-17T06:04:39.917Z,50.834793
2022-09-17T06:05:39.917Z,50.834782
2022-09-17T06:06:39.901Z,50.834774
2022-09-17T06:07:39.900Z,50.834801
2022-09-17T06:08:39.898Z,50.834805
2022-09-17T06:09:39.890Z,50.834785
2022-09-17T06:10:39.985Z,50.834789
2022-09-17T06:11:39.895Z,50.834793
2022-09-17T06:12:39.876Z,50.834805
2022-09-17T06:13:39.884Z,50.834793
2022-09-17T06:14:39.874Z,50.834801
2022-09-17T06:15:39.855Z,50.834789
2022-09-17T06:16:39.881Z,50.834789
2022-09-17T06:17:39.843Z,50.834774
2022-09-17T06:18:39.843Z,50.834785
2022-09-17T06:19:39.814Z,50.834785
2022-09-17T06:20:39.827Z,50.834770
2022-09-17T06:21:39.826Z,50.834778
2022-09-17T06:22:39.792Z,50.834793
2022-09-17T06:23:39.791Z,50.834797
2022-09-17T06:24:39.781Z,50.834782
2022-09-17T06:25:39.791Z,50.834793
2022-09-17T06:26:39.854Z,50.834782
2022-09-17T06:27:39.760Z,50.834785
2022-09-17T06:28:41.861Z,50.834782
2022-09-17T06:29:40.737Z,50.834782
2022-09-17T06:30:39.775Z,50.834782
2022-09-17T06:31:39.791Z,50.834785
2022-09-17T06:32:39.713Z,50.834797
2022-09-17T06:33:39.733Z,50.834789
2022-09-17T06:34:39.713Z,50.834785
2022-09-17T06:35:39.734Z,50.834797
2022-09-17T06:36:39.763Z,50.834812
2022-09-17T06:37:39.687Z,50.834805
2022-09-17T06:38:39.674Z,50.834785
2022-09-17T06:39:39.667Z,50.834778
2022-09-17T06:40:39.738Z,50.834785
2022-09-17T06:41:39.670Z,50.834789
2022-09-17T06:42:39.726Z,50.834808
2022-09-17T06:43:39.653Z,50.834824
2022-09-17T06:44:39.609Z,50.834805
2022-09-17T06:45:39.611Z,50.834816
2022-09-17T06:46:39.638Z,50.834812
2022-09-17T06:47:39.605Z,50.834824
2022-09-17T06:48:39.619Z,50.834820
2022-09-17T06:49:39.580Z,50.834835
2022-09-17T06:50:42.804Z,50.834805
2022-09-17T06:51:40.571Z,50.834850
2022-09-17T06:52:39.612Z,50.834831
2022-09-17T06:53:39.570Z,50.834805
2022-09-17T06:54:39.553Z,50.834820
2022-09-17T06:55:39.555Z,50.834820
2022-09-17T06:56:39.567Z,50.834858
2022-09-17T06:57:39.653Z,50.834839
2022-09-17T06:58:39.600Z,50.834854
2022-09-17T06:59:39.832Z,50.834846
2022-09-17T07:00:39.676Z,50.834839
2022-09-17T07:01:39.560Z,50.834846
2022-09-17T07:02:39.534Z,50.834824
2022-09-17T07:03:39.541Z,50.834820
2022-09-17T07:04:39.495Z,50.834808
2022-09-17T07:05:40.100Z,50.834816
2022-09-17T07:06:39.516Z,50.834824
2022-09-17T07:07:39.438Z,50.834808
2022-09-17T07:08:39.681Z,50.834808
2022-09-17T07:09:39.615Z,50.834812
2022-09-17T07:10:39.430Z,50.834808
2022-09-17T07:11:39.504Z,50.834801
2022-09-17T07:12:39.476Z,50.834808
2022-09-17T07:13:39.423Z,50.834797
2022-09-17T07:14:39.553Z,50.834785
2022-09-17T07:15:39.462Z,50.834789
2022-09-17T07:16:40.917Z,50.834782
2022-09-17T07:17:39.421Z,50.834805
2022-09-17T07:18:39.379Z,50.834820
2022-09-17T07:19:39.382Z,50.834801
2022-09-17T07:20:39.367Z,50.834770
2022-09-17T07:21:39.443Z,50.834789
2022-09-17T07:22:39.341Z,50.834793
2022-09-17T07:23:39.359Z,50.834785
2022-09-17T07:24:39.401Z,50.834766
2022-09-17T07:25:39.348Z,50.834785
2022-09-17T07:26:39.312Z,50.834778
2022-09-17T07:27:39.374Z,50.834782
2022-09-17T07:28:39.386Z,50.834793
2022-09-17T07:29:39.303Z,50.834789
2022-09-17T07:30:39.382Z,50.834797
2022-09-17T07:31:39.428Z,50.834793
2022-09-17T07:32:40.027Z,50.834820
2022-09-17T07:33:39.293Z,50.834808
2022-09-17T07:34:39.360Z,50.834808
2022-09-17T07:35:39.297Z,50.834812
2022-09-17T07:36:39.239Z,50.834820
2022-09-17T07:37:39.274Z,50.834805
2022-09-17T07:38:39.254Z,50.834820
2022-09-17T07:39:39.227Z,50.834824
2022-09-17T07:40:39.243Z,50.834831
2022-09-17T07:41:39.213Z,50.834820
2022-09-17T07:42:39.240Z,50.834816
2022-09-17T07:43:40.230Z,50.834820
2022-09-17T07:44:41.065Z,50.834820
2022-09-17T07:45:39.170Z,50.834789
2022-09-17T07:46:39.263Z,50.834808
2022-09-17T07:47:39.156Z,50.834801
2022-09-17T07:48:39.198Z,50.834805
2022-09-17T07:49:39.152Z,50.834816
2022-09-17T07:50:39.172Z,50.834816
2022-09-17T07:51:40.517Z,50.834812
2022-09-17T07:52:40.138Z,50.834808
2022-09-17T07:53:39.169Z,50.834785
2022-09-17T07:54:39.165Z,50.834793
2022-09-17T07:55:39.117Z,50.834805
2022-09-17T07:56:39.113Z,50.834805
2022-09-17T07:57:39.075Z,50.834808
2022-09-17T07:58:39.084Z,50.834805
2022-09-17T07:59:39.108Z,50.834805
2022-09-17T08:00:39.069Z,50.834808
2022-09-17T08:01:39.243Z,50.834805
2022-09-17T08:02:39.287Z,50.834793
2022-09-17T08:03:39.039Z,50.834789
2022-09-17T08:04:39.051Z,50.834789
2022-09-17T08:05:39.076Z,50.834801
2022-09-17T08:06:39.113Z,50.834812
2022-09-17T08:07:39.026Z,50.834801
2022-09-17T08:08:41.383Z,50.834808
2022-09-17T08:09:39.009Z,50.834797
2022-09-17T08:10:38.992Z,50.834805
2022-09-17T08:11:55.078Z,50.834805
2022-09-17T08:12:41.913Z,50.834801
2022-09-17T08:13:39.011Z,50.834797
2022-09-17T08:14:38.952Z,50.834805
2022-09-17T08:15:38.972Z,50.834797
2022-09-17T08:16:39.074Z,50.834801
2022-09-17T08:17:38.989Z,50.834797
2022-09-17T08:18:39.036Z,50.834797
2022-09-17T08:19:38.939Z,50.834793
2022-09-17T08:20:38.974Z,50.834789
2022-09-17T08:21:38.970Z,50.834797
2022-09-17T08:22:38.950Z,50.834782
2022-09-17T08:23:38.890Z,50.834797
2022-09-17T08:24:38.888Z,50.834770
2022-09-17T08:25:38.860Z,50.834797
2022-09-17T08:26:38.854Z,50.834793
2022-09-17T08:27:38.902Z,50.834805
2022-09-17T08:28:38.875Z,50.834805
2022-09-17T08:29:38.887Z,50.834805
2022-09-17T08:30:38.841Z,50.834812
2022-09-17T08:31:38.937Z,50.834812
2022-09-17T08:32:38.854Z,50.834831
2022-09-17T08:33:38.814Z,50.834843
2022-09-17T08:34:38.903Z,50.834839
2022-09-17T08:35:38.829Z,50.834793
2022-09-17T08:36:38.826Z,50.834797
2022-09-17T08:37:38.789Z,50.834755
2022-09-17T08:38:38.826Z,50.834778
2022-09-17T08:39:38.774Z,50.834801
2022-09-17T08:40:38.916Z,50.834816
2022-09-17T08:41:38.759Z,50.834824
2022-09-17T08:42:38.775Z,50.834812
2022-09-17T08:43:38.783Z,50.834805
2022-09-17T08:44:38.714Z,50.834785
2022-09-17T08:45:38.722Z,50.834778
2022-09-17T08:46:38.767Z,50.834816
2022-09-17T08:47:39.695Z,50.834808
2022-09-17T08:48:38.680Z,50.834808
2022-09-17T08:49:38.697Z,50.834812
2022-09-17T08:50:38.792Z,50.834824
2022-09-17T08:51:38.682Z,50.834812
2022-09-17T08:52:38.664Z,50.834789
2022-09-17T08:53:38.637Z,50.834812
2022-09-17T08:54:38.645Z,50.834785
2022-09-17T08:55:38.653Z,50.834774
2022-09-17T08:56:38.705Z,50.834793
2022-09-17T08:57:38.646Z,50.834782
2022-09-17T08:58:38.586Z,50.834782
2022-09-17T08:59:38.625Z,50.834789
2022-09-17T09:00:38.598Z,50.834801
2022-09-17T09:01:38.738Z,50.834820
2022-09-17T09:02:38.828Z,50.834831
2022-09-17T09:03:38.581Z,50.834846
2022-09-17T09:04:38.610Z,50.834862
2022-09-17T09:05:38.587Z,50.834850
2022-09-17T09:06:38.649Z,50.834854
2022-09-17T09:07:38.534Z,50.834850
2022-09-17T09:08:38.581Z,50.834835
2022-09-17T09:09:38.582Z,50.834846
2022-09-17T09:10:38.530Z,50.834850
2022-09-17T09:11:38.578Z,50.834846
2022-09-17T09:12:38.484Z,50.834835
2022-09-17T09:13:38.543Z,50.834831
2022-09-17T09:14:38.512Z,50.834835
2022-09-17T09:26:58.718Z,50.834888
2022-09-17T09:27:50.162Z,50.834843
2022-09-17T10:54:50.916Z,50.834839
2022-09-17T10:55:44.567Z,50.834835
2022-09-17T10:56:43.589Z,50.834835
2022-09-17T10:57:44.530Z,50.834824
2022-09-17T10:58:44.293Z,50.834816
2022-09-17T10:59:43.516Z,50.834812
2022-09-17T11:00:43.578Z,50.834820
2022-09-17T11:01:43.731Z,50.834812
2022-09-17T11:02:44.847Z,50.834805
2022-09-17T12:29:28.836Z,50.834831
2022-09-17T12:30:29.798Z,50.834808
2022-09-17T12:31:29.812Z,50.834831
2022-09-17T12:32:28.908Z,50.834824
2022-09-17T12:34:08.770Z,50.834751
2022-09-17T12:34:42.301Z,50.834770
2022-09-17T12:48:45.391Z,50.834759
2022-09-17T12:49:45.422Z,50.834789
2022-09-17T12:59:39.578Z,50.834572
2022-09-17T13:00:39.671Z,50.834557
2022-09-17T13:01:39.618Z,50.834866
2022-09-17T13:02:40.685Z,50.834797
2022-09-17T13:03:39.567Z,50.834766
2022-09-17T13:04:59.953Z,50.834793
2022-09-17T13:05:43.238Z,50.834770
2022-09-17T13:06:39.637Z,50.834774
2022-09-17T13:07:39.593Z,50.834789
2022-09-17T13:08:39.503Z,50.834824
2022-09-17T13:09:39.523Z,50.834763
2022-09-17T13:10:40.298Z,50.834770
2022-09-17T13:11:41.223Z,50.834797
2022-09-17T13:12:39.625Z,50.834782
2022-09-17T13:13:39.453Z,50.834808
2022-09-17T13:14:39.495Z,50.834782
2022-09-17T13:15:39.579Z,50.834785
2022-09-17T13:16:39.537Z,50.834782
2022-09-17T13:17:39.428Z,50.834785
2022-09-17T13:18:41.795Z,50.834801
2022-09-17T13:19:41.449Z,50.834805
2022-09-17T13:20:39.441Z,50.834778
2022-09-17T13:32:31.197Z,50.834850
2022-09-17T13:33:31.199Z,50.834770
2022-09-17T13:34:30.545Z,50.834759
2022-09-17T13:35:30.539Z,50.834797
2022-09-17T13:36:30.409Z,50.834805
2022-09-17T13:37:30.362Z,50.834751
2022-09-17T13:38:30.398Z,50.834763
2022-09-17T13:39:30.450Z,50.834755
2022-09-17T13:40:30.486Z,50.834763
2022-09-17T13:41:30.427Z,50.834782
2022-09-17T13:42:30.365Z,50.834778
2022-09-17T13:43:30.404Z,50.834778
2022-09-17T13:44:30.449Z,50.834774
2022-09-17T13:45:31.059Z,50.834808
2022-09-17T13:46:30.360Z,50.834785
2022-09-17T13:47:30.409Z,50.834785
2022-09-17T13:48:30.272Z,50.834789
2022-09-17T13:49:30.339Z,50.834785
2022-09-17T13:50:30.252Z,50.834801
2022-09-17T13:52:03.403Z,50.834789
2022-09-17T13:52:30.234Z,50.834797
2022-09-17T13:53:31.385Z,50.834789
2022-09-17T13:54:30.311Z,50.834782
2022-09-17T13:55:30.283Z,50.834770
2022-09-17T13:56:30.280Z,50.834789
2022-09-17T13:57:30.252Z,50.834778
2022-09-17T13:58:30.224Z,50.834785
2022-09-17T13:59:30.201Z,50.834801
2022-09-17T14:00:31.216Z,50.834778
2022-09-17T14:01:30.229Z,50.834774
2022-09-17T14:02:31.099Z,50.834774
2022-09-17T14:03:32.739Z,50.834785
2022-09-17T14:04:30.179Z,50.834778
2022-09-17T14:05:30.220Z,50.834782
2022-09-17T14:06:30.284Z,50.834782
2022-09-17T14:07:31.070Z,50.834801
2022-09-17T14:08:30.224Z,50.834797
2022-09-17T14:09:30.309Z,50.834782
2022-09-17T14:10:30.190Z,50.834793
2022-09-17T14:11:30.111Z,50.834789
2022-09-17T14:12:30.223Z,50.834778
2022-09-17T14:13:30.094Z,50.834785
2022-09-17T14:14:30.095Z,50.834778
2022-09-17T14:15:30.121Z,50.834782
2022-09-17T14:16:30.218Z,50.834766
2022-09-17T14:17:30.196Z,50.834770
2022-09-17T14:18:30.085Z,50.834797
2022-09-17T14:19:31.421Z,50.834785
2022-09-17T14:25:25.531Z,50.834755
2022-09-17T14:26:26.237Z,50.834797
2022-09-17T14:27:26.247Z,50.834747
2022-09-17T14:28:25.550Z,50.834755
2022-09-17T14:29:25.687Z,50.834755
2022-09-17T14:30:25.571Z,50.834751
2022-09-17T14:31:25.576Z,50.834766
2022-09-17T14:32:25.658Z,50.834774
2022-09-17T14:33:25.646Z,50.834793
2022-09-17T14:34:25.497Z,50.834793
2022-09-17T14:35:25.544Z,50.834766
2022-09-17T14:36:25.645Z,50.834774
2022-09-17T14:37:25.502Z,50.834774
2022-09-17T14:38:25.707Z,50.834759
2022-09-17T14:39:25.609Z,50.834774
2022-09-17T14:40:26.247Z,50.834805
2022-09-17T14:41:26.249Z,50.834785
2022-09-17T14:42:26.727Z,50.834797
2022-09-17T14:43:25.506Z,50.834801
2022-09-17T14:44:25.383Z,50.834820
2022-09-17T14:45:25.462Z,50.834812
2022-09-17T14:46:26.563Z,50.834816
2022-09-17T14:47:26.192Z,50.834820
2022-09-17T14:48:25.544Z,50.834808
2022-09-17T14:49:25.429Z,50.834820
2022-09-17T14:50:25.399Z,50.834785
2022-09-17T14:52:02.543Z,50.834797
2022-09-17T14:53:01.085Z,50.834801
2022-09-17T14:53:26.401Z,50.834827
2022-09-17T14:54:26.416Z,50.834782
2022-09-17T14:55:25.651Z,50.834827
2022-09-17T14:56:26.555Z,50.834808
2022-09-17T14:57:27.109Z,50.834797
2022-09-17T14:58:25.648Z,50.834827
2022-09-17T14:59:29.127Z,50.834793
2022-09-17T15:00:27.095Z,50.834808
2022-09-17T15:01:25.672Z,50.834816
2022-09-17T15:02:27.120Z,50.834820
2022-09-17T15:03:27.569Z,50.834805
2022-09-17T15:04:28.085Z,50.834801
2022-09-17T15:05:26.582Z,50.834812
2022-09-17T15:06:26.525Z,50.834824
2022-09-17T15:07:27.621Z,50.834816
2022-09-17T15:08:25.407Z,50.834816
2022-09-17T15:09:25.455Z,50.834839
2022-09-17T15:10:25.503Z,50.834846
2022-09-17T15:11:27.156Z,50.834835
2022-09-17T15:12:26.573Z,50.834843
2022-09-17T15:13:28.605Z,50.834854
2022-09-17T15:14:27.089Z,50.834816
2022-09-17T15:15:28.071Z,50.834816
2022-09-17T15:16:59.686Z,50.834808
2022-09-17T15:17:25.900Z,50.834843
2022-09-17T15:18:25.259Z,50.834824
2022-09-17T15:19:25.168Z,50.834816
2022-09-17T15:20:25.229Z,50.834835
2022-09-17T15:21:25.246Z,50.834793
2022-09-17T15:22:25.385Z,50.834797
2022-09-17T15:23:25.201Z,50.834805
2022-09-17T15:24:25.402Z,50.834808
2022-09-17T15:25:25.349Z,50.834827
2022-09-17T15:26:25.248Z,50.834866
2022-09-17T15:27:25.224Z,50.834873
2022-09-17T15:28:25.139Z,50.834831
2022-09-17T15:29:25.315Z,50.834873
2022-09-17T15:30:25.207Z,50.834805
2022-09-17T15:31:25.278Z,50.834824
2022-09-17T15:32:25.308Z,50.834820
2022-09-17T15:33:26.174Z,50.834793
2022-09-17T15:34:25.123Z,50.834808
2022-09-17T15:35:25.130Z,50.834782
2022-09-17T15:36:25.211Z,50.834793
2022-09-17T15:37:25.139Z,50.834808
2022-09-17T15:38:26.134Z,50.834789
2022-09-17T15:39:59.415Z,50.834812
2022-09-17T15:48:24.195Z,50.834770
2022-09-17T15:49:24.378Z,50.834778
2022-09-17T15:50:24.246Z,50.834801
2022-09-17T15:51:24.225Z,50.834801
2022-09-17T15:52:24.210Z,50.834785
2022-09-17T15:53:24.235Z,50.834755
2022-09-17T15:54:24.163Z,50.834789
2022-09-17T15:55:24.865Z,50.834816
2022-09-17T15:56:24.098Z,50.834827
2022-09-17T15:57:24.152Z,50.834831
2022-09-17T15:58:24.159Z,50.834820
2022-09-17T15:59:24.147Z,50.834805
2022-09-17T16:00:24.178Z,50.834785
2022-09-17T16:01:24.193Z,50.834805
2022-09-17T16:02:24.228Z,50.834808
2022-09-17T16:03:24.092Z,50.834797
2022-09-17T16:04:24.837Z,50.834805
2022-09-17T16:05:24.114Z,50.834824
2022-09-17T16:06:24.070Z,50.834808
2022-09-17T16:07:24.070Z,50.834805
2022-09-17T16:08:24.035Z,50.834808
2022-09-17T16:09:24.057Z,50.834812
2022-09-17T16:10:25.400Z,50.834793
2022-09-17T16:11:24.152Z,50.834812
2022-09-17T16:12:24.060Z,50.834820
2022-09-17T16:13:28.450Z,50.834808
2022-09-17T16:14:25.883Z,50.834824
2022-09-17T16:15:24.088Z,50.834843
2022-09-17T16:16:24.062Z,50.834827
2022-09-17T16:17:24.082Z,50.834824
2022-09-17T16:18:24.642Z,50.834824
2022-09-17T16:19:24.116Z,50.834835
2022-09-17T16:20:24.080Z,50.834820
2022-09-17T16:21:23.975Z,50.834843
2022-09-17T16:22:23.986Z,50.834854
2022-09-17T16:23:24.043Z,50.834835
2022-09-17T16:24:23.967Z,50.834839
2022-09-17T16:25:24.614Z,50.834835
2022-09-17T16:26:24.120Z,50.834843
2022-09-17T16:27:24.121Z,50.834850
2022-09-17T16:28:24.083Z,50.834835